Terminal Aerodrome Forecast
Issued by NWS Hastings, NE

Home | Current Version | Previous Version | Text Only | Print | Product List | Glossary On
Versions: 1 2 3 4 5 6 7 8 9 10 11 12 13
031
FTUS45 KGID 081730
TAFEAR
TAF
KEAR 081730Z 0818/0918 33014KT P6SM SKC
     FM082200 33009KT P6SM SKC
     FM090200 VRB03KT P6SM FEW200
     FM091400 14007KT P6SM BKN080
      AMD LTD TO CLD VIS AND WIND=

USA.gov is the U.S. government's official web portal to all federal, state and local government web resources and services.